Time;durP1;ratioP1;P1;durP2;ratioP2;P2;SDS_P1;SDS_P2;PMS_P1;PMS_P2;Temp;Humidity;BMP_temperature;BMP_pressure;BME280_temperature;BME280_humidity;BME280_pressure;Samples;Min_cycle;Max_cycle;Signal;HPM_P1;HPM_P2
2021/05/22 00:00:06;;;;;;;2.83;2.08;;;;;;;13.47;62.78;99335.09;2146215;82;30467;-62
2021/05/22 00:03:10;;;;;;;7.37;3.58;;;;;;;13.47;63.04;99331.06;2128363;82;27689;-61
2021/05/22 00:06:12;;;;;;;3.67;2.25;;;;;;;13.47;63.10;99343.67;2158896;82;29814;-61
2021/05/22 00:09:14;;;;;;;3.15;1.98;;;;;;;13.45;63.26;99351.00;2120938;82;32387;-61
2021/05/22 00:12:16;;;;;;;3.33;2.05;;;;;;;13.44;63.26;99343.91;2145722;82;35116;-62
2021/05/22 00:15:19;;;;;;;3.77;2.17;;;;;;;13.43;63.33;99338.99;2119758;83;30540;-63
2021/05/22 00:18:20;;;;;;;4.20;1.82;;;;;;;13.43;63.34;99330.92;2145425;82;27649;-61
2021/05/22 00:21:22;;;;;;;4.28;1.95;;;;;;;13.44;63.33;99327.77;2114788;83;28496;-62
2021/05/22 00:24:24;;;;;;;2.42;1.32;;;;;;;13.46;63.38;99336.58;2114958;84;31424;-60
2021/05/22 00:27:26;;;;;;;4.60;2.35;;;;;;;13.45;63.23;99341.08;2120923;82;33756;-60
2021/05/22 00:30:28;;;;;;;3.20;2.05;;;;;;;13.48;63.24;99342.70;2197235;81;30661;-61
2021/05/22 00:33:30;;;;;;;6.37;2.98;;;;;;;13.48;63.21;99331.94;2197353;81;27538;-61
2021/05/22 00:36:32;;;;;;;6.80;3.60;;;;;;;13.46;63.19;99321.27;2197378;81;29908;-61
2021/05/22 00:39:34;;;;;;;5.50;3.17;;;;;;;13.47;63.11;99329.72;2188532;81;32112;-61
2021/05/22 00:42:39;;;;;;;5.42;3.00;;;;;;;13.46;63.29;99342.80;2177156;81;33371;-61
2021/05/22 00:45:39;;;;;;;6.45;2.62;;;;;;;13.48;63.16;99342.70;2106440;84;29735;-60
2021/05/22 00:48:41;;;;;;;3.45;1.60;;;;;;;13.48;63.13;99335.47;2144819;83;27631;-61
2021/05/22 00:51:43;;;;;;;2.20;1.67;;;;;;;13.49;63.16;99329.58;2144611;82;29417;-61
2021/05/22 00:54:45;;;;;;;5.40;2.33;;;;;;;13.47;63.19;99331.56;2146956;81;30875;-61
2021/05/22 00:57:46;;;;;;;4.47;2.05;;;;;;;13.48;63.25;99349.42;2122029;83;33507;-61
2021/05/22 01:00:52;;;;;;;5.00;2.00;;;;;;;13.48;63.07;99335.97;2144584;83;30374;-61
2021/05/22 01:03:54;;;;;;;4.47;1.95;;;;;;;13.48;63.24;99331.94;2144591;82;27652;-61
2021/05/22 01:06:56;;;;;;;3.02;1.40;;;;;;;13.49;63.25;99321.04;2146577;81;29559;-61
2021/05/22 01:09:58;;;;;;;2.72;1.72;;;;;;;13.51;63.29;99300.26;2144586;83;31370;-61
2021/05/22 01:13:01;;;;;;;3.30;1.90;;;;;;;13.48;63.17;99303.18;2144369;83;34224;-60
2021/05/22 01:16:03;;;;;;;3.30;1.47;;;;;;;13.47;63.19;99316.77;2144516;82;29320;-61
2021/05/22 01:19:06;;;;;;;2.35;1.60;;;;;;;13.47;63.21;99313.58;2144575;83;28034;-62
2021/05/22 01:22:10;;;;;;;3.72;2.00;;;;;;;13.47;63.20;99314.08;2144753;83;28863;-60
2021/05/22 01:25:29;;;;;;;4.28;1.95;;;;;;;13.47;63.37;99301.97;2123574;81;31096;-61
2021/05/22 01:28:34;;;;;;;5.12;1.80;;;;;;;13.47;63.21;99297.94;2181187;81;33493;-62
2021/05/22 01:31:36;;;;;;;4.20;2.10;;;;;;;13.48;63.40;99301.00;2148211;82;29316;-61
2021/05/22 01:34:38;;;;;;;4.05;2.10;;;;;;;13.49;63.45;99292.79;2142765;83;27645;-61
2021/05/22 01:37:40;;;;;;;4.58;1.77;;;;;;;13.46;63.41;99290.33;2164083;81;29757;-61
2021/05/22 01:40:42;;;;;;;2.90;1.80;;;;;;;13.42;63.38;99284.81;2155670;81;32252;-61
2021/05/22 01:43:48;;;;;;;2.80;1.75;;;;;;;13.34;63.35;99270.59;2119762;83;34250;-61
2021/05/22 01:46:52;;;;;;;2.50;1.52;;;;;;;13.30;63.35;99262.88;2158921;82;29316;-61
2021/05/22 01:49:54;;;;;;;3.00;1.77;;;;;;;13.22;63.46;99264.35;2158411;82;27801;-62
2021/05/22 01:52:57;;;;;;;5.60;1.60;;;;;;;13.20;63.60;99281.56;2158572;82;29765;-61
2021/05/22 01:55:59;;;;;;;1.85;1.47;;;;;;;13.20;63.65;99287.81;2159207;82;31016;-60
2021/05/22 01:59:01;;;;;;;2.90;1.72;;;;;;;13.20;63.78;99283.78;2158342;82;32841;-60
2021/05/22 02:02:03;;;;;;;2.75;1.50;;;;;;;13.22;63.77;99279.61;2145298;82;29686;-60
2021/05/22 02:05:07;;;;;;;2.10;1.50;;;;;;;13.24;63.70;99270.94;2120433;83;27632;-61
2021/05/22 02:08:13;;;;;;;6.00;1.92;;;;;;;13.26;63.78;99274.38;2159241;82;28595;-62
2021/05/22 02:11:15;;;;;;;3.30;1.72;;;;;;;13.26;63.68;99282.45;2159274;81;30989;-61
2021/05/22 02:14:28;;;;;;;5.53;1.85;;;;;;;13.25;63.81;99282.55;2146139;82;33333;-60
2021/05/22 02:17:30;;;;;;;2.17;1.65;;;;;;;13.20;63.71;99289.16;2153027;82;29869;-60
2021/05/22 02:20:32;;;;;;;3.72;1.77;;;;;;;13.18;63.75;99296.48;2158208;82;27695;-62
2021/05/22 02:23:38;;;;;;;2.42;1.80;;;;;;;13.18;63.87;99295.61;2161030;81;29041;-61
2021/05/22 02:26:41;;;;;;;1.98;1.50;;;;;;;13.17;63.98;99313.59;2146320;82;30996;-62
2021/05/22 02:29:45;;;;;;;1.90;1.57;;;;;;;13.16;64.00;99309.19;2120902;83;33327;-60
2021/05/22 02:32:51;;;;;;;7.08;1.75;;;;;;;13.14;64.00;99303.56;2146355;82;30113;-60
2021/05/22 02:35:55;;;;;;;2.60;1.70;;;;;;;13.11;64.10;99301.95;2120566;83;27576;-61
2021/05/22 02:38:58;;;;;;;1.73;1.50;;;;;;;13.09;64.18;99303.05;2159062;81;30854;-61
2021/05/22 02:42:03;;;;;;;2.40;1.70;;;;;;;13.05;64.09;99297.91;2158960;82;31003;-61
2021/05/22 02:45:08;;;;;;;3.22;1.50;;;;;;;13.03;64.17;99300.34;2158890;82;34119;-62
2021/05/22 02:48:18;;;;;;;3.08;1.57;;;;;;;13.02;64.31;99285.19;2159103;82;30074;-61
2021/05/22 02:51:23;;;;;;;2.12;1.32;;;;;;;13.02;64.34;99281.16;2158998;82;27551;-60
2021/05/22 02:54:26;;;;;;;4.97;1.40;;;;;;;13.03;64.39;99284.22;2160191;81;28645;-61
2021/05/22 02:57:28;;;;;;;2.20;1.80;;;;;;;13.03;64.50;99278.34;2146167;82;31847;-61
2021/05/22 03:00:30;;;;;;;1.50;1.25;;;;;;;13.02;64.61;99276.63;2120882;83;33371;-61
2021/05/22 03:03:35;;;;;;;2.17;1.35;;;;;;;13.01;64.70;99271.38;2137616;82;29338;-61
2021/05/22 03:06:37;;;;;;;4.55;1.80;;;;;;;12.99;64.73;99301.55;2113307;84;27633;-60
2021/05/22 03:09:39;;;;;;;6.37;2.17;;;;;;;12.95;64.76;99305.44;2112961;84;29111;-61
2021/05/22 03:12:40;;;;;;;5.87;1.57;;;;;;;12.94;64.81;99309.97;2112888;84;32123;-60
2021/05/22 03:15:42;;;;;;;4.12;1.80;;;;;;;12.92;64.85;99299.81;2112918;84;32997;-61
2021/05/22 03:18:44;;;;;;;3.42;1.60;;;;;;;12.90;64.85;99289.66;2115506;82;30331;-61
2021/05/22 03:21:46;;;;;;;4.95;1.70;;;;;;;12.87;64.90;99293.45;2112025;83;28375;-62
2021/05/22 03:24:47;;;;;;;2.77;1.82;;;;;;;12.88;64.89;99294.29;2150356;82;29786;-62
2021/05/22 03:27:50;;;;;;;3.83;1.62;;;;;;;12.87;65.02;99285.86;2158601;82;31411;-60
2021/05/22 03:30:53;;;;;;;2.95;1.87;;;;;;;12.88;65.10;99279.04;2158618;82;34231;-61
2021/05/22 03:33:55;;;;;;;4.28;1.50;;;;;;;12.91;65.14;99281.97;2158000;82;29126;-61
2021/05/22 03:36:58;;;;;;;4.35;1.90;;;;;;;12.95;65.15;99278.08;2158933;82;27655;-61
2021/05/22 03:40:00;;;;;;;5.22;1.90;;;;;;;13.02;65.23;99271.75;2133687;82;29510;-61
2021/05/22 03:43:01;;;;;;;2.25;1.65;;;;;;;13.04;65.06;99273.33;2158428;82;31770;-61
2021/05/22 03:46:03;;;;;;;2.25;1.87;;;;;;;13.07;65.10;99269.07;2159177;82;32780;-62
2021/05/22 03:49:05;;;;;;;3.17;1.72;;;;;;;13.13;65.12;99276.30;2118055;83;30371;-62
2021/05/22 03:52:07;;;;;;;2.65;1.45;;;;;;;13.15;65.02;99279.23;2159280;82;27593;-61
2021/05/22 03:55:12;;;;;;;4.20;1.92;;;;;;;13.19;64.97;99278.03;2159217;82;29796;-61
2021/05/22 03:58:14;;;;;;;2.62;1.75;;;;;;;13.22;64.99;99268.86;2159122;82;32699;-61
2021/05/22 04:01:17;;;;;;;4.90;1.40;;;;;;;13.27;65.01;99284.16;2146510;82;33614;-62
2021/05/22 04:04:19;;;;;;;1.80;1.70;;;;;;;13.26;64.74;99294.55;2132653;82;29407;-63
2021/05/22 04:07:20;;;;;;;2.83;1.70;;;;;;;13.26;64.92;99306.66;2123221;82;27679;-61
2021/05/22 04:10:24;;;;;;;4.15;1.52;;;;;;;13.27;64.97;99319.12;2138496;82;29678;-61
2021/05/22 04:13:26;;;;;;;2.98;1.95;;;;;;;13.30;64.93;99327.44;2150946;82;31957;-61
2021/05/22 04:16:27;;;;;;;5.00;1.80;;;;;;;13.29;65.00;99325.72;2150948;82;32993;-61
2021/05/22 04:19:29;;;;;;;1.95;1.47;;;;;;;13.30;64.96;99326.09;2150952;82;30471;-62
2021/05/22 04:22:31;;;;;;;4.62;1.42;;;;;;;13.31;64.98;99315.70;2129640;82;27685;-62
2021/05/22 04:25:33;;;;;;;3.40;1.95;;;;;;;13.34;65.01;99321.70;2084594;85;29759;-61
2021/05/22 04:28:35;;;;;;;5.12;2.22;;;;;;;13.35;64.89;99309.96;2121337;83;31181;-62
2021/05/22 04:31:37;;;;;;;3.72;1.57;;;;;;;13.42;65.06;99313.56;2120715;83;33285;-61
2021/05/22 04:34:39;;;;;;;1.92;1.72;;;;;;;13.51;65.19;99313.71;2121645;83;29676;-62
2021/05/22 04:37:40;;;;;;;3.77;1.82;;;;;;;13.63;65.38;99317.28;2105094;83;27670;-62
2021/05/22 04:40:42;;;;;;;3.45;1.92;;;;;;;13.79;65.11;99310.19;2129010;82;28989;-59
2021/05/22 04:43:44;;;;;;;2.72;1.52;;;;;;;13.92;64.96;99306.51;2073352;84;32129;-60
2021/05/22 04:46:46;;;;;;;6.03;1.60;;;;;;;14.00;64.54;99274.45;2073317;85;33304;-60
2021/05/22 04:49:48;;;;;;;2.52;1.37;;;;;;;14.05;64.26;99276.77;2073660;85;29709;-60
2021/05/22 04:52:49;;;;;;;4.70;1.92;;;;;;;14.11;64.29;99297.33;2073726;84;27627;-60
2021/05/22 04:55:51;;;;;;;4.08;1.57;;;;;;;14.17;64.15;99313.98;2077810;84;28631;-60
2021/05/22 04:58:53;;;;;;;3.42;1.90;;;;;;;14.22;64.19;99309.09;2119080;84;32184;-65
2021/05/22 05:01:54;;;;;;;4.45;1.80;;;;;;;14.30;64.01;99307.96;2119139;84;33370;-62
2021/05/22 05:04:56;;;;;;;5.95;2.17;;;;;;;14.41;64.19;99309.78;2119334;84;29733;-65
2021/05/22 05:07:58;;;;;;;5.15;1.82;;;;;;;14.52;64.04;99308.91;2119345;84;27715;-61
2021/05/22 05:11:00;;;;;;;2.72;1.85;;;;;;;14.63;64.03;99306.17;2181871;81;30038;-60
2021/05/22 05:14:02;;;;;;;6.00;1.67;;;;;;;14.75;63.91;99305.69;2140751;83;31338;-60
2021/05/22 05:17:04;;;;;;;4.65;2.00;;;;;;;14.86;63.77;99316.42;2140632;83;33688;-60
2021/05/22 05:20:08;;;;;;;5.80;2.02;;;;;;;14.94;63.69;99307.69;2119334;84;30445;-60
2021/05/22 05:23:10;;;;;;;4.67;2.22;;;;;;;14.98;63.53;99297.48;2118938;83;27646;-64
2021/05/22 05:26:12;;;;;;;5.17;2.15;;;;;;;15.06;63.54;99307.16;2119162;83;29454;-63
2021/05/22 05:29:14;;;;;;;2.70;1.77;;;;;;;15.14;63.61;99302.45;2119468;84;31019;-63
2021/05/22 05:32:15;;;;;;;2.77;1.80;;;;;;;15.23;63.40;99306.21;2157889;82;33147;-64
2021/05/22 05:35:17;;;;;;;3.00;1.72;;;;;;;15.28;63.01;99318.83;2165982;81;29320;-63
2021/05/22 05:38:19;;;;;;;3.15;2.22;;;;;;;15.32;62.97;99319.78;2181045;81;27676;-64
2021/05/22 05:41:21;;;;;;;3.62;1.60;;;;;;;15.36;63.01;99323.56;2150424;82;29366;-64
2021/05/22 05:44:22;;;;;;;2.20;1.85;;;;;;;15.38;62.90;99319.73;2156439;82;30995;-64
2021/05/22 05:47:24;;;;;;;2.85;1.80;;;;;;;15.39;62.66;99308.47;2197817;81;33668;-63
2021/05/22 05:50:26;;;;;;;6.53;1.70;;;;;;;15.39;62.59;99315.22;2188455;81;29309;-64
2021/05/22 05:53:28;;;;;;;2.08;1.87;;;;;;;15.41;62.78;99328.05;2179258;81;28323;-64
2021/05/22 05:56:29;;;;;;;5.45;2.05;;;;;;;15.47;62.85;99331.59;2155681;81;28625;-63
2021/05/22 05:59:31;;;;;;;2.77;1.70;;;;;;;15.56;62.81;99336.69;2144987;82;31142;-62
2021/05/22 06:02:33;;;;;;;5.00;2.02;;;;;;;15.65;62.76;99335.88;2122423;82;33342;-64
2021/05/22 06:05:35;;;;;;;3.62;1.90;;;;;;;15.76;62.68;99333.61;2145006;82;30459;-60
2021/05/22 06:08:37;;;;;;;4.45;1.75;;;;;;;15.83;62.20;99331.22;2120743;83;27641;-62
2021/05/22 06:11:38;;;;;;;4.05;1.87;;;;;;;15.89;62.12;99334.78;2146140;82;29712;-62
2021/05/22 06:14:44;;;;;;;3.17;1.90;;;;;;;15.96;61.85;99344.07;2152231;82;32327;-61
2021/05/22 06:17:44;;;;;;;2.95;1.95;;;;;;;16.03;61.31;99348.44;2164720;81;34054;-61
2021/05/22 06:20:46;;;;;;;3.10;1.75;;;;;;;16.06;61.20;99355.77;2168804;81;29698;-61
2021/05/22 06:23:48;;;;;;;3.05;1.55;;;;;;;16.08;61.24;99355.14;2155714;82;27587;-61
2021/05/22 06:26:53;;;;;;;4.87;1.70;;;;;;;16.10;60.61;99350.46;2120349;82;28712;-61
2021/05/22 06:29:53;;;;;;;2.92;1.60;;;;;;;16.09;60.76;99359.55;2120565;83;32276;-61
2021/05/22 06:32:55;;;;;;;3.45;1.75;;;;;;;16.11;60.68;99356.70;2145705;82;33687;-61
2021/05/22 06:35:57;;;;;;;4.95;2.08;;;;;;;16.09;60.74;99355.50;2151794;82;29337;-62
2021/05/22 06:38:58;;;;;;;5.00;1.90;;;;;;;16.09;60.72;99366.31;2158796;81;27670;-62
2021/05/22 06:42:00;;;;;;;2.58;1.98;;;;;;;16.10;60.92;99367.15;2148857;82;30818;-61
2021/05/22 06:45:07;;;;;;;3.42;1.90;;;;;;;16.11;60.79;99371.56;2085259;85;32112;-61
2021/05/22 06:48:07;;;;;;;3.67;2.10;;;;;;;16.10;60.65;99372.08;2146166;82;33574;-62
2021/05/22 06:51:11;;;;;;;2.17;1.98;;;;;;;16.09;60.73;99374.89;2140270;82;29321;-62
2021/05/22 06:54:12;;;;;;;3.52;2.25;;;;;;;16.07;60.75;99382.27;2080623;85;27818;-61
2021/05/22 06:57:16;;;;;;;2.58;1.65;;;;;;;16.09;60.99;99383.87;2113953;84;29027;-61
2021/05/22 07:00:19;;;;;;;3.22;1.80;;;;;;;16.10;60.88;99386.94;2095617;83;31415;-61
2021/05/22 07:03:22;;;;;;;4.53;1.85;;;;;;;16.10;61.12;99391.47;2118505;82;33064;-61
2021/05/22 07:06:24;;;;;;;5.85;1.60;;;;;;;16.07;61.29;99398.01;2122546;83;30219;-61
2021/05/22 07:09:26;;;;;;;6.10;2.25;;;;;;;15.97;61.04;99392.19;2078367;85;27593;-61
2021/05/22 07:12:28;;;;;;;2.67;1.90;;;;;;;15.92;61.55;99399.34;2114878;83;28609;-61
2021/05/22 07:15:30;;;;;;;7.00;2.27;;;;;;;15.88;61.73;99400.11;2086266;83;31331;-61
2021/05/22 07:18:34;;;;;;;4.00;1.60;;;;;;;15.85;62.07;99410.27;2086065;83;33503;-61
2021/05/22 07:21:36;;;;;;;3.00;1.95;;;;;;;15.78;61.87;99409.95;2136662;82;31295;-60
2021/05/22 07:24:40;;;;;;;3.85;2.20;;;;;;;15.69;61.82;99412.94;2113117;82;27699;-61
2021/05/22 07:27:42;;;;;;;3.90;2.20;;;;;;;15.61;62.29;99416.30;2098139;83;29381;-61
2021/05/22 07:30:44;;;;;;;5.08;1.92;;;;;;;15.54;62.37;99420.52;2150386;82;31501;-61
2021/05/22 07:33:46;;;;;;;4.62;2.10;;;;;;;15.55;62.97;99415.96;2111746;82;33316;-62
2021/05/22 07:36:48;;;;;;;3.17;2.22;;;;;;;15.54;62.84;99420.52;2110974;84;31429;-63
2021/05/22 07:39:51;;;;;;;3.05;1.90;;;;;;;15.58;63.21;99417.91;2150310;82;28244;-64
2021/05/22 07:42:53;;;;;;;3.17;1.75;;;;;;;15.65;63.32;99423.63;2157000;81;28648;-62
2021/05/22 07:45:57;;;;;;;3.92;2.47;;;;;;;15.65;63.12;99431.25;2174013;81;31540;-62
2021/05/22 07:48:59;;;;;;;4.25;2.25;;;;;;;15.70;63.51;99432.72;2161023;81;32699;-69
2021/05/22 07:52:01;;;;;;;3.60;2.17;;;;;;;15.75;63.39;99435.38;2145583;82;30438;-64
2021/05/22 07:55:03;;;;;;;2.77;2.15;;;;;;;15.80;63.26;99423.67;2125279;82;27649;-64
2021/05/22 07:58:06;;;;;;;6.72;2.05;;;;;;;15.83;63.56;99427.97;2142826;82;28645;-63
2021/05/22 08:01:07;;;;;;;3.40;1.98;;;;;;;15.81;63.35;99424.55;2158337;81;32060;-62
2021/05/22 08:04:09;;;;;;;2.75;1.90;;;;;;;15.83;63.54;99415.81;2134323;82;33354;-65
2021/05/22 08:07:10;;;;;;;2.58;2.08;;;;;;;15.83;63.47;99409.06;2158363;81;29727;-63
2021/05/22 08:10:15;;;;;;;21.42;7.92;;;;;;;15.80;63.30;99420.97;2144150;82;27638;-61
2021/05/22 08:13:16;;;;;;;13.03;5.42;;;;;;;15.79;63.31;99411.19;2158882;81;28071;-62
2021/05/22 08:16:18;;;;;;;3.27;2.22;;;;;;;15.82;63.76;99387.58;2143972;82;31189;-62
2021/05/22 08:19:21;;;;;;;4.87;2.98;;;;;;;15.82;63.71;99382.17;2144477;82;27981;-62
2021/05/22 08:22:23;;;;;;;4.45;2.20;;;;;;;15.83;63.51;99388.81;2166032;81;31426;-62
2021/05/22 08:25:25;;;;;;;2.75;1.80;;;;;;;15.83;63.79;99387.46;2157959;81;27614;-61
2021/05/22 08:28:28;;;;;;;3.27;2.10;;;;;;;15.90;63.75;99396.76;2120966;82;28981;-61
2021/05/22 08:31:32;;;;;;;3.60;2.50;;;;;;;16.10;64.23;99407.20;2160000;81;31337;-62
2021/05/22 08:34:53;;;;;;;2.70;2.10;;;;;;;16.43;64.33;99411.11;2156604;81;32957;-61
2021/05/22 08:37:57;;;;;;;8.08;3.77;;;;;;;16.73;64.50;99399.05;2149541;81;29373;-61
2021/05/22 08:41:03;;;;;;;8.45;4.10;;;;;;;17.05;64.11;99408.31;2150580;81;27609;-61
2021/05/22 08:44:05;;;;;;;6.50;3.58;;;;;;;17.16;63.40;99418.16;2149979;81;29979;-62
2021/05/22 08:47:07;;;;;;;5.53;3.37;;;;;;;17.18;63.01;99405.34;2151198;81;32118;-62
2021/05/22 08:50:11;;;;;;;4.47;2.58;;;;;;;17.34;63.36;99415.63;2158023;81;33353;-62
2021/05/22 08:53:13;;;;;;;4.12;3.05;;;;;;;17.45;63.00;99403.30;2144640;81;29304;-63
2021/05/22 08:56:15;;;;;;;2.08;1.87;;;;;;;17.52;62.55;99395.95;2128505;81;27663;-62
2021/05/22 08:59:18;;;;;;;4.53;2.10;;;;;;;17.42;62.10;99390.03;2154470;81;27603;-61
2021/05/22 09:02:25;;;;;;;11.43;6.60;;;;;;;17.35;62.24;99388.91;2148855;81;30834;-61
2021/05/22 09:05:32;;;;;;;9.23;5.97;;;;;;;17.31;62.42;99353.13;2193200;80;33341;-63
2021/05/22 09:08:33;;;;;;;5.42;3.12;;;;;;;17.31;62.42;99353.13;2123888;82;29722;-63
2021/05/22 09:11:51;;;;;;;5.90;3.50;;;;;;;17.57;62.29;99378.28;2160851;81;27640;-62
2021/05/22 09:14:52;;;;;;;3.50;2.20;;;;;;;17.58;62.11;99381.34;2155165;81;28660;-62
2021/05/22 09:18:03;;;;;;;9.00;4.08;;;;;;;17.52;61.98;99389.19;2160092;81;30866;-62
2021/05/22 09:21:10;;;;;;;4.58;2.92;;;;;;;17.45;61.54;99392.45;2160201;81;33577;-62
2021/05/22 09:24:12;;;;;;;4.50;2.30;;;;;;;17.39;61.87;99389.47;2157529;81;29375;-61
2021/05/22 09:27:14;;;;;;;9.40;3.85;;;;;;;17.36;61.93;99396.52;2155086;81;27681;-61
2021/05/22 09:30:19;;;;;;;20.92;10.85;;;;;;;17.32;61.86;99400.02;2156917;81;28638;-62
2021/05/22 09:33:28;;;;;;;22.52;12.20;;;;;;;17.35;62.10;99392.97;2166589;81;30947;-62
2021/05/22 09:36:35;;;;;;;22.48;11.80;;;;;;;17.47;62.24;99400.42;2163237;81;33272;-61
2021/05/22 09:39:47;;;;;;;39.27;16.42;;;;;;;17.53;62.20;99399.86;2143976;81;29258;-61
2021/05/22 09:42:49;;;;;;;36.77;20.12;;;;;;;17.59;61.34;99391.17;2154745;81;27577;-61
2021/05/22 09:45:50;;;;;;;34.85;19.30;;;;;;;17.70;61.47;99389.30;2154420;81;29008;-62
2021/05/22 09:49:03;;;;;;;24.23;14.53;;;;;;;17.87;61.43;99387.72;2094980;81;32371;-61
2021/05/22 09:52:10;;;;;;;3.98;2.10;;;;;;;18.06;61.19;99388.19;2127559;81;31621;-61
2021/05/22 09:55:12;;;;;;;5.35;3.02;;;;;;;18.22;61.03;99380.77;2131828;81;30384;-63
2021/05/22 09:58:13;;;;;;;2.77;1.80;;;;;;;18.36;60.82;99383.02;2152823;81;28116;-62
2021/05/22 10:01:18;;;;;;;3.60;2.22;;;;;;;18.40;59.70;99371.37;2150984;81;29770;-62
2021/05/22 10:04:23;;;;;;;2.02;1.82;;;;;;;18.55;59.75;99362.73;2153634;81;30894;-62
2021/05/22 10:07:34;;;;;;;6.65;3.00;;;;;;;18.81;59.41;99366.93;2151454;81;33658;-62
2021/05/22 10:10:47;;;;;;;8.05;3.50;;;;;;;19.03;58.97;99364.83;2150494;81;29694;-63
2021/05/22 10:13:49;;;;;;;8.20;3.90;;;;;;;19.26;58.62;99357.06;2149938;81;28036;-61
2021/05/22 10:16:50;;;;;;;5.30;3.62;;;;;;;19.46;58.38;99359.59;2153561;81;29018;-60
2021/05/22 10:19:52;;;;;;;5.78;2.62;;;;;;;19.75;58.47;99352.52;2150888;81;31370;-62
2021/05/22 10:22:54;;;;;;;3.80;1.87;;;;;;;20.11;57.36;99351.56;2147854;81;33338;-61
2021/05/22 10:25:57;;;;;;;3.15;2.02;;;;;;;20.32;57.25;99362.91;2156048;81;29693;-61
2021/05/22 10:28:59;;;;;;;3.42;1.72;;;;;;;20.55;56.54;99356.02;2146389;81;27664;-61
2021/05/22 10:32:01;;;;;;;6.05;1.27;;;;;;;20.80;56.30;99354.27;2153950;81;28591;-60
2021/05/22 10:35:16;;;;;;;2.00;1.47;;;;;;;20.93;55.09;99354.63;2157142;81;32088;-61
2021/05/22 10:38:42;;;;;;;4.28;1.65;;;;;;;21.00;54.47;99353.48;2157845;81;33011;-62
2021/05/22 10:41:41;;;;;;;3.30;1.80;;;;;;;21.00;54.01;99358.05;2160471;81;29456;-61
2021/05/22 10:44:43;;;;;;;3.02;1.40;;;;;;;20.90;53.58;99359.56;2155242;81;28201;-61
2021/05/22 10:47:45;;;;;;;1.95;1.25;;;;;;;20.76;53.23;99363.80;2159779;81;29078;-62
2021/05/22 10:50:49;;;;;;;1.98;1.50;;;;;;;20.72;52.79;99359.66;2149286;81;31385;-64
2021/05/22 10:54:01;;;;;;;4.97;1.55;;;;;;;20.91;53.26;99347.66;2157010;81;34090;-63
2021/05/22 10:57:09;;;;;;;4.37;1.55;;;;;;;21.29;53.67;99351.27;2165192;81;29314;-63
2021/05/22 11:00:22;;;;;;;3.55;1.30;;;;;;;21.63;53.25;99362.55;2157439;81;27676;-64
2021/05/22 11:03:25;;;;;;;2.60;1.25;;;;;;;21.84;52.21;99357.95;2155328;81;42931;-61
2021/05/22 11:07:14;;;;;;;2.83;1.72;;;;;;;21.99;51.95;99355.34;2154721;81;32191;-62
2021/05/22 11:10:40;;;;;;;1.55;1.37;;;;;;;22.14;51.57;99355.49;2158671;81;33542;-62
2021/05/22 11:13:42;;;;;;;2.20;1.27;;;;;;;22.27;49.97;99339.41;2123083;82;29338;-61
2021/05/22 11:16:44;;;;;;;4.78;2.22;;;;;;;22.31;49.06;99341.27;2151103;81;27640;-62
2021/05/22 11:20:04;;;;;;;4.37;1.50;;;;;;;22.20;48.20;99337.04;2156895;81;29803;-62
2021/05/22 11:23:09;;;;;;;1.30;1.20;;;;;;;22.08;48.47;99331.13;2134151;81;31443;-65
2021/05/22 11:26:10;;;;;;;2.77;1.50;;;;;;;22.18;49.07;99333.62;2121345;82;37350;-66
2021/05/22 11:29:12;;;;;;;2.35;1.62;;;;;;;22.40;48.34;99333.90;2132439;81;29863;-65
2021/05/22 11:32:56;;;;;;;2.35;1.45;;;;;;;22.45;47.35;99332.89;2157321;81;27597;-66
2021/05/22 11:36:02;;;;;;;2.72;1.72;;;;;;;22.63;48.18;99324.97;2140173;81;29791;-66
2021/05/22 11:39:09;;;;;;;2.58;1.27;;;;;;;22.63;47.01;99323.07;2186914;80;31984;-65
2021/05/22 11:42:36;;;;;;;3.00;1.50;;;;;;;22.67;46.75;99320.33;2118644;82;32438;-65
2021/05/22 11:45:38;;;;;;;3.80;1.47;;;;;;;22.62;46.06;99324.09;2144741;81;30145;-66
2021/05/22 11:48:44;;;;;;;3.22;1.60;;;;;;;22.63;46.25;99323.07;2162548;80;27649;-64
2021/05/22 11:51:45;;;;;;;2.42;1.70;;;;;;;22.69;45.76;99316.91;2151849;81;28645;-65
2021/05/22 11:54:47;;;;;;;1.80;1.52;;;;;;;22.64;44.10;99306.20;2162213;80;31700;-65
2021/05/22 11:58:14;;;;;;;4.28;1.50;;;;;;;22.43;45.34;99314.48;2145521;81;32991;-64
2021/05/22 12:01:26;;;;;;;2.87;1.70;;;;;;;22.44;44.92;99315.66;2157903;80;29497;-64
2021/05/22 12:04:28;;;;;;;1.80;1.10;;;;;;;22.41;44.21;99316.00;2167571;80;27600;-64
2021/05/22 12:07:50;;;;;;;2.95;1.20;;;;;;;22.36;44.16;99302.53;2162733;81;28592;-64
2021/05/22 12:10:52;;;;;;;2.30;1.02;;;;;;;22.33;44.30;99313.30;2162318;81;30987;-65
2021/05/22 12:14:01;;;;;;;3.35;1.35;;;;;;;22.22;42.93;99324.61;2152328;81;32910;-66
2021/05/22 12:17:06;;;;;;;2.60;1.45;;;;;;;22.04;43.54;99318.87;2162757;80;29326;-64
2021/05/22 12:20:08;;;;;;;2.65;1.20;;;;;;;22.18;43.28;99335.00;2159073;80;27621;-65
2021/05/22 12:23:30;;;;;;;3.43;1.13;;;;;;;22.24;42.95;99334.30;2154467;80;28594;-69
2021/05/22 12:26:31;;;;;;;0.82;0.78;;;;;;;22.35;43.31;99331.71;2156301;80;30980;-75
2021/05/22 12:29:33;;;;;;;2.35;1.02;;;;;;;22.50;42.76;99338.69;2159356;81;33638;-70
2021/05/22 12:32:35;;;;;;;4.17;1.67;;;;;;;22.51;42.42;99327.23;2140251;81;30074;-68
2021/05/22 12:35:36;;;;;;;4.30;1.75;;;;;;;22.36;41.48;99323.86;2172285;80;27681;-70
2021/05/22 12:38:42;;;;;;;3.12;1.20;;;;;;;22.16;42.22;99313.89;2110048;82;28600;-74
2021/05/22 12:41:44;;;;;;;1.62;0.90;;;;;;;22.09;42.40;99313.72;2127157;82;31068;-69
2021/05/22 12:44:47;;;;;;;1.40;1.02;;;;;;;21.99;42.20;99307.62;2143206;81;33943;-73
2021/05/22 12:47:52;;;;;;;2.30;1.00;;;;;;;21.82;42.11;99301.38;2148305;81;30035;-74
2021/05/22 12:50:53;;;;;;;8.03;1.30;;;;;;;;;;2139586;81;27633;-76
2021/05/22 12:53:55;;;;;;;1.47;1.00;;;;;;;21.38;41.74;99292.53;2145640;81;28468;-74
2021/05/22 12:57:19;;;;;;;2.17;1.00;;;;;;;21.17;41.79;99294.94;2149617;81;31030;-75
2021/05/22 13:00:22;;;;;;;1.43;1.03;;;;;;;21.05;41.73;99295.78;2151375;81;32970;-76
2021/05/22 13:03:43;;;;;;;5.42;1.00;;;;;;;20.91;41.80;99298.16;2102959;83;29347;-73
2021/05/22 13:06:50;;;;;;;3.75;1.45;;;;;;;20.80;42.13;99291.66;2111569;82;27599;-60
2021/05/22 13:10:07;;;;;;;1.32;1.00;;;;;;;20.70;42.22;99289.05;2114599;82;29186;-61
2021/05/22 13:13:17;;;;;;;3.20;1.12;;;;;;;20.62;42.23;99298.05;2144377;82;32118;-61
2021/05/22 13:16:19;;;;;;;2.25;1.10;;;;;;;20.54;41.51;99296.68;2122402;82;33372;-61
2021/05/22 13:19:46;;;;;;;4.70;1.25;;;;;;;20.48;41.92;99290.53;2145628;81;29767;-61
2021/05/22 13:22:49;;;;;;;1.82;1.35;;;;;;;20.44;41.81;99283.22;2144052;81;27590;-61
2021/05/22 13:25:54;;;;;;;1.95;1.12;;;;;;;20.40;42.02;99288.64;2147421;81;29722;-63
2021/05/22 13:28:56;;;;;;;;;;;;;;;20.42;41.86;99283.88;2152253;81;31001;-63
2021/05/22 13:32:00;;;;;;;2.83;1.30;;;;;;;20.47;41.38;99288.83;2146691;81;33408;-62
2021/05/22 13:35:02;;;;;;;4.40;1.00;;;;;;;20.54;41.30;99291.73;2139300;81;29091;-62
2021/05/22 13:38:05;;;;;;;4.92;1.05;;;;;;;20.54;41.00;99299.89;2164239;80;27794;-61
2021/05/22 13:41:07;;;;;;;2.15;0.98;;;;;;;20.48;40.54;99286.45;2188157;80;29876;-61
2021/05/22 13:44:12;;;;;;;1.47;0.95;;;;;;;20.42;40.57;99291.21;2193592;80;31014;-60
2021/05/22 13:47:14;;;;;;;4.50;1.67;;;;;;;20.36;40.65;99284.53;2189316;80;33696;-63
2021/05/22 13:50:16;;;;;;;1.80;0.98;;;;;;;20.35;41.02;99280.14;2187883;80;30612;-60
2021/05/22 13:53:18;;;;;;;2.35;0.70;;;;;;;20.35;40.28;99284.22;2187842;80;27651;-70
2021/05/22 13:56:20;;;;;;;2.27;1.25;;;;;;;20.29;40.09;99280.79;2185454;80;28562;-70
2021/05/22 13:59:22;;;;;;;4.15;1.57;;;;;;;20.22;40.14;99289.25;2185656;80;30953;-67
2021/05/22 14:02:23;;;;;;;1.35;0.90;;;;;;;20.16;39.65;99294.84;2193577;80;32927;-69
2021/05/22 14:05:25;;;;;;;2.40;1.15;;;;;;;20.10;39.89;99290.91;2179429;80;30073;-70
2021/05/22 14:08:27;;;;;;;1.98;1.10;;;;;;;20.09;40.27;99299.24;2186582;80;27665;-62
2021/05/22 14:11:28;;;;;;;2.58;1.07;;;;;;;20.14;40.25;99294.14;2190838;80;28594;-62
2021/05/22 14:14:30;;;;;;;5.33;1.32;;;;;;;20.18;40.24;99290.95;2185149;80;31374;-62
2021/05/22 14:17:33;;;;;;;5.33;2.00;;;;;;;20.23;40.12;99297.75;2185240;80;34030;-62
2021/05/22 14:20:40;;;;;;;4.47;1.67;;;;;;;20.34;40.42;99284.71;2185526;80;30549;-62
2021/05/22 14:23:41;;;;;;;10.20;3.10;;;;;;;20.43;39.94;99287.48;2187853;80;27562;-61
2021/05/22 14:26:44;;;;;;;5.47;1.52;;;;;;;20.55;39.79;99290.72;2185721;80;28531;-61